Time;durP1;ratioP1;P1;durP2;ratioP2;P2;SDS_P1;SDS_P2;PMS_P1;PMS_P2;Temp;Humidity;BMP_temperature;BMP_pressure;BME280_temperature;BME280_humidity;BME280_pressure;Samples;Min_cycle;Max_cycle;Signal;HPM_P1;HPM_P2
2023/10/14 00:01:14;;;;;;;14.85;4.65;;;20.10;99.90;;;;;;5041925;28;20017;-75
2023/10/14 00:03:42;;;;;;;12.20;4.38;;;20.20;99.90;;;;;;5031203;28;20397;-76
2023/10/14 00:06:12;;;;;;;13.15;4.35;;;20.10;99.90;;;;;;5051863;28;20127;-75
2023/10/14 00:08:48;;;;;;;8.85;3.72;;;20.10;99.90;;;;;;5052820;28;20029;-75
2023/10/14 00:11:17;;;;;;;17.50;3.90;;;20.10;99.90;;;;;;5052474;28;20013;-74
2023/10/14 00:13:53;;;;;;;6.78;2.97;;;20.00;99.90;;;;;;5052400;28;20033;-73
2023/10/14 00:18:52;;;;;;;6.63;2.70;;;19.50;99.90;;;;;;5043678;28;20065;-72
2023/10/14 00:21:18;;;;;;;5.07;1.90;;;19.50;99.90;;;;;;5045420;28;20399;-73
2023/10/14 00:23:44;;;;;;;3.47;1.17;;;19.20;99.90;;;;;;5051982;28;20099;-74
2023/10/14 00:26:20;;;;;;;2.50;1.10;;;19.00;99.90;;;;;;5051167;28;20387;-74
2023/10/14 00:28:46;;;;;;;3.70;0.77;;;19.00;99.90;;;;;;5051128;28;20123;-71
2023/10/14 00:31:13;;;;;;;2.00;0.60;;;19.10;99.90;;;;;;5052446;28;20422;-73
2023/10/14 00:33:39;;;;;;;7.30;1.05;;;19.00;99.90;;;;;;5051968;28;20063;-72
2023/10/14 00:36:10;;;;;;;3.15;0.70;;;19.00;99.90;;;;;;5052078;28;20110;-73
2023/10/14 00:38:38;;;;;;;3.00;0.43;;;19.00;99.90;;;;;;5068104;28;20477;-72
2023/10/14 00:41:03;;;;;;;0.93;0.38;;;19.00;99.90;;;;;;5072359;28;20021;-73
2023/10/14 00:43:29;;;;;;;0.88;0.50;;;19.00;99.90;;;;;;5072214;28;20483;-75
2023/10/14 00:45:55;;;;;;;1.00;0.70;;;19.00;99.90;;;;;;5058328;28;20027;-71
2023/10/14 00:48:27;;;;;;;1.05;0.40;;;19.00;99.90;;;;;;5037312;28;20478;-73
2023/10/14 00:50:58;;;;;;;1.67;0.52;;;19.00;99.90;;;;;;5031835;28;20018;-71
2023/10/14 00:53:27;;;;;;;2.17;0.40;;;18.90;99.90;;;;;;5032243;28;20037;-73
2023/10/14 00:55:54;;;;;;;1.13;0.40;;;18.70;99.90;;;;;;5040320;28;20355;-73
2023/10/14 00:58:24;;;;;;;2.97;0.57;;;18.70;99.90;;;;;;5033778;28;20390;-71
2023/10/14 01:00:59;;;;;;;0.73;0.60;;;18.70;99.90;;;;;;5051962;28;20467;-72
2023/10/14 01:03:33;;;;;;;1.77;0.30;;;18.70;99.90;;;;;;5051695;28;20086;-71
2023/10/14 01:06:15;;;;;;;2.03;0.63;;;18.70;99.90;;;;;;5033138;28;20025;-72
2023/10/14 01:08:43;;;;;;;0.47;0.40;;;18.70;99.90;;;;;;5051773;28;20020;-72
2023/10/14 01:11:09;;;;;;;2.88;0.80;;;18.60;99.90;;;;;;5052116;28;20017;-71
2023/10/14 01:13:36;;;;;;;1.52;0.80;;;18.70;99.90;;;;;;5051834;28;20169;-75
2023/10/14 01:16:08;;;;;;;4.88;0.47;;;18.60;99.90;;;;;;5052249;28;20021;-71
2023/10/14 01:18:39;;;;;;;1.10;0.55;;;18.60;99.90;;;;;;5030410;28;20467;-72
2023/10/14 01:21:06;;;;;;;0.80;0.80;;;18.50;99.90;;;;;;5043090;28;20017;-71
2023/10/14 01:23:36;;;;;;;1.92;1.25;;;18.50;99.90;;;;;;5051094;28;20100;-72
2023/10/14 01:26:04;;;;;;;1.38;0.80;;;18.40;99.90;;;;;;5051399;28;20048;-71
2023/10/14 01:28:31;;;;;;;1.70;1.17;;;18.30;99.90;;;;;;5051581;28;20045;-71
2023/10/14 01:33:55;;;;;;;6.60;1.80;;;18.20;99.90;;;;;;5052288;28;20111;-72
2023/10/14 01:36:32;;;;;;;4.43;1.77;;;18.10;99.90;;;;;;5055104;28;20023;-74
2023/10/14 01:39:04;;;;;;;2.35;1.92;;;18.10;99.90;;;;;;5055476;28;20017;-72
2023/10/14 01:41:30;;;;;;;4.60;2.47;;;18.10;99.90;;;;;;5055089;28;20044;-72
2023/10/14 01:44:02;;;;;;;4.03;3.20;;;18.10;99.90;;;;;;5055546;28;20533;-71
2023/10/14 01:46:30;;;;;;;6.90;3.60;;;18.10;99.90;;;;;;5055393;28;20144;-71
2023/10/14 01:48:56;;;;;;;5.68;3.95;;;18.10;99.90;;;;;;5055226;28;20021;-71
2023/10/14 01:51:25;;;;;;;7.97;3.60;;;18.10;99.90;;;;;;5055629;28;20359;-71
2023/10/14 01:53:51;;;;;;;3.90;3.15;;;18.10;99.90;;;;;;5054913;28;20123;-71
2023/10/14 01:56:17;;;;;;;6.68;3.40;;;18.00;99.90;;;;;;5054435;28;20096;-71
2023/10/14 01:58:45;;;;;;;6.05;3.30;;;18.00;99.90;;;;;;5055243;28;20426;-72
2023/10/14 02:03:50;;;;;;;10.27;2.25;;;17.80;99.90;;;;;;5055062;28;20363;-72
2023/10/14 02:06:18;;;;;;;9.45;2.50;;;17.70;99.90;;;;;;5036620;28;20569;-72
2023/10/14 02:08:51;;;;;;;7.60;2.63;;;17.70;99.90;;;;;;5054527;28;20486;-72
2023/10/14 02:11:20;;;;;;;8.13;2.03;;;17.70;99.90;;;;;;5053818;28;20511;-71
2023/10/14 02:13:46;;;;;;;8.18;2.38;;;17.70;99.90;;;;;;5054917;28;20041;-72
2023/10/14 02:16:12;;;;;;;5.82;2.30;;;17.70;99.90;;;;;;5054471;28;20021;-73
2023/10/14 02:18:38;;;;;;;9.80;2.58;;;17.70;99.90;;;;;;5054686;28;20518;-73
2023/10/14 02:21:06;;;;;;;7.63;2.72;;;17.70;99.90;;;;;;5054643;28;20052;-73
2023/10/14 02:23:44;;;;;;;8.88;3.10;;;17.60;99.90;;;;;;5054401;28;20128;-72
2023/10/14 02:26:33;;;;;;;10.57;2.30;;;17.60;99.90;;;;;;5053953;28;20420;-72
2023/10/14 02:28:59;;;;;;;9.93;2.00;;;17.50;99.90;;;;;;5054628;28;20021;-73
2023/10/14 02:31:29;;;;;;;14.23;2.53;;;17.30;99.90;;;;;;5054018;28;20040;-72
2023/10/14 02:34:08;;;;;;;10.65;2.47;;;17.20;99.90;;;;;;5054220;28;20040;-73
2023/10/14 02:36:35;;;;;;;8.98;2.28;;;17.20;99.90;;;;;;5053396;28;20482;-72
2023/10/14 02:39:16;;;;;;;12.43;2.67;;;17.20;99.90;;;;;;5036399;28;20394;-73
2023/10/14 02:41:44;;;;;;;10.30;2.33;;;17.20;99.90;;;;;;5054376;28;20092;-73
2023/10/14 02:46:44;;;;;;;14.63;2.53;;;17.20;99.90;;;;;;5053039;28;20112;-73
2023/10/14 02:49:14;;;;;;;13.82;2.22;;;17.30;99.90;;;;;;5053730;28;20458;-73
2023/10/14 02:51:43;;;;;;;10.73;2.25;;;17.20;99.90;;;;;;5053053;28;20060;-72
2023/10/14 02:54:26;;;;;;;10.63;2.25;;;17.20;99.90;;;;;;5054162;28;20033;-72
2023/10/14 02:56:58;;;;;;;9.23;2.05;;;17.30;99.90;;;;;;5053958;28;20120;-73
2023/10/14 03:07:27;;;;;;;13.05;2.25;;;17.20;99.90;;;;;;5054339;28;20029;-73
2023/10/14 03:09:54;;;;;;;13.65;2.35;;;17.30;99.90;;;;;;5036213;28;20401;-73
2023/10/14 03:12:21;;;;;;;12.30;2.65;;;17.20;99.90;;;;;;5053758;28;20021;-73
2023/10/14 03:14:53;;;;;;;12.55;3.03;;;17.20;99.90;;;;;;5035686;28;20374;-73
2023/10/14 03:17:39;;;;;;;;;;;17.10;99.90;;;;;;5054001;28;20025;-73
2023/10/14 03:20:34;;;;;;;11.05;2.50;;;17.10;99.90;;;;;;5052499;28;19905;-75
2023/10/14 03:23:18;;;;;;;8.38;2.28;;;16.90;99.90;;;;;;5053289;28;20367;-74
2023/10/14 03:25:46;;;;;;;11.07;2.30;;;16.90;99.90;;;;;;5053112;28;20029;-73
2023/10/14 03:28:13;;;;;;;17.95;2.88;;;16.90;99.90;;;;;;5053620;28;20116;-73
2023/10/14 03:30:46;;;;;;;12.35;2.42;;;16.80;99.90;;;;;;5035190;28;20025;-74
2023/10/14 03:33:20;;;;;;;16.15;2.40;;;16.80;99.90;;;;;;5053478;28;20103;-74
2023/10/14 03:36:00;;;;;;;7.78;2.15;;;16.90;99.90;;;;;;5053463;28;20413;-73
2023/10/14 03:43:58;;;;;;;14.52;2.58;;;16.70;99.90;;;;;;5072990;28;20385;-73
2023/10/14 03:46:33;;;;;;;20.70;3.00;;;16.70;99.90;;;;;;5073222;28;20021;-73
2023/10/14 03:49:06;;;;;;;15.98;3.17;;;16.70;99.90;;;;;;5053270;28;20048;-73
2023/10/14 03:51:33;;;;;;;13.68;3.00;;;16.60;99.90;;;;;;5053179;28;20052;-73
2023/10/14 03:54:09;;;;;;;12.20;2.80;;;16.50;99.90;;;;;;5053397;28;20044;-73
2023/10/14 03:56:36;;;;;;;12.80;2.97;;;16.50;99.90;;;;;;5052534;28;20478;-73
2023/10/14 03:59:03;;;;;;;13.95;2.72;;;16.50;99.90;;;;;;5052755;28;20389;-75
2023/10/14 04:04:20;;;;;;;15.70;3.30;;;16.40;99.90;;;;;;5052881;28;20029;-73
2023/10/14 04:09:46;;;;;;;16.00;3.13;;;16.30;99.90;;;;;;5051493;28;20037;-74
2023/10/14 04:17:38;;;;;;;17.35;2.67;;;16.10;99.90;;;;;;5032236;28;20108;-74
2023/10/14 04:22:39;;;;;;;14.98;3.38;;;16.00;99.90;;;;;;5031633;28;20048;-74
2023/10/14 04:25:21;;;;;;;10.45;2.60;;;16.00;99.90;;;;;;5031782;28;20032;-73
2023/10/14 04:30:21;;;;;;;17.25;2.78;;;15.90;99.90;;;;;;5032177;28;20486;-73
2023/10/14 04:32:57;;;;;;;14.80;2.83;;;15.90;99.90;;;;;;5032077;28;20021;-74
2023/10/14 04:35:24;;;;;;;10.25;2.55;;;15.80;99.90;;;;;;5032707;28;20030;-73
2023/10/14 04:37:51;;;;;;;16.35;3.22;;;15.80;99.90;;;;;;5031816;28;20032;-74
2023/10/14 04:44:00;;;;;;;17.33;3.08;;;15.70;99.90;;;;;;5032204;28;20095;-74
2023/10/14 04:46:22;;;;;;;10.88;3.17;;;15.70;99.90;;;;;;5026699;28;20474;-73
2023/10/14 04:48:59;;;;;;;13.90;3.05;;;15.60;99.90;;;;;;5031893;28;20041;-73
2023/10/14 04:51:34;;;;;;;18.52;3.45;;;15.60;99.90;;;;;;5032313;28;20025;-74
2023/10/14 04:54:00;;;;;;;10.52;2.45;;;15.60;99.90;;;;;;5031928;28;20029;-74
2023/10/14 04:56:32;;;;;;;12.32;2.80;;;15.50;99.90;;;;;;5044108;28;20421;-73
2023/10/14 04:58:58;;;;;;;16.60;3.25;;;15.50;99.90;;;;;;5052280;28;20033;-73
2023/10/14 05:01:27;;;;;;;19.45;3.45;;;15.40;99.90;;;;;;5052333;28;20025;-74
2023/10/14 05:03:57;;;;;;;10.43;2.60;;;15.50;99.90;;;;;;5052523;28;20021;-74
2023/10/14 05:06:29;;;;;;;14.52;2.95;;;15.40;99.90;;;;;;5052360;28;20067;-74
2023/10/14 05:08:55;;;;;;;13.88;2.63;;;15.40;99.90;;;;;;5055257;28;20025;-74
2023/10/14 05:11:25;;;;;;;13.80;3.00;;;15.30;99.90;;;;;;5058359;28;20086;-74
2023/10/14 05:14:14;;;;;;;12.27;2.65;;;15.30;99.90;;;;;;5039007;28;20037;-74
2023/10/14 05:19:29;;;;;;;9.02;2.58;;;15.30;99.90;;;;;;5037424;28;20071;-74
2023/10/14 05:22:03;;;;;;;14.30;2.65;;;15.30;99.90;;;;;;5020967;28;20041;-74
2023/10/14 05:24:29;;;;;;;13.40;2.35;;;15.30;99.90;;;;;;5038287;28;20100;-74
2023/10/14 05:27:01;;;;;;;12.05;2.55;;;15.30;99.90;;;;;;5038737;28;20132;-74
2023/10/14 05:29:28;;;;;;;9.73;2.38;;;15.30;99.90;;;;;;5038376;28;20025;-74
2023/10/14 05:32:10;;;;;;;16.25;2.72;;;15.20;99.90;;;;;;5021751;28;20025;-74
2023/10/14 05:34:35;;;;;;;12.18;2.35;;;15.20;99.90;;;;;;5050041;28;20116;-74
2023/10/14 05:37:01;;;;;;;13.75;2.38;;;15.20;99.90;;;;;;5057843;28;20105;-74
2023/10/14 05:39:27;;;;;;;17.35;2.92;;;15.20;99.90;;;;;;5057226;28;20103;-75
2023/10/14 05:42:03;;;;;;;13.35;3.45;;;15.20;99.90;;;;;;5058696;28;20052;-75
2023/10/14 05:44:29;;;;;;;15.73;2.80;;;15.20;99.90;;;;;;5058418;28;20052;-75
2023/10/14 05:46:55;;;;;;;10.98;2.80;;;15.00;99.90;;;;;;5058523;28;20600;-75
2023/10/14 05:49:24;;;;;;;13.85;3.08;;;15.00;99.90;;;;;;5058484;28;20474;-75
2023/10/14 05:51:53;;;;;;;13.05;2.75;;;15.10;99.90;;;;;;5058612;28;20112;-74
2023/10/14 05:54:22;;;;;;;11.40;2.55;;;15.00;99.90;;;;;;5057180;28;20044;-75
2023/10/14 05:56:51;;;;;;;14.95;2.90;;;15.00;99.90;;;;;;5057815;28;20164;-75
2023/10/14 05:59:17;;;;;;;12.48;2.72;;;15.00;99.90;;;;;;5058277;28;20175;-74
2023/10/14 06:01:46;;;;;;;15.20;2.53;;;15.00;99.90;;;;;;5057636;28;20029;-75
2023/10/14 06:04:15;;;;;;;9.52;2.30;;;15.00;99.90;;;;;;5054483;28;20045;-76
2023/10/14 06:06:41;;;;;;;11.73;2.40;;;15.00;99.90;;;;;;5039972;28;20382;-75
2023/10/14 06:09:09;;;;;;;20.20;3.20;;;14.90;99.90;;;;;;5048986;28;20017;-74
2023/10/14 06:11:36;;;;;;;11.48;2.70;;;14.90;99.90;;;;;;5036655;28;20030;-75
2023/10/14 06:14:02;;;;;;;17.50;3.40;;;14.90;99.90;;;;;;5037852;28;20034;-74
2023/10/14 06:16:31;;;;;;;15.90;3.38;;;14.90;99.90;;;;;;5038038;28;20109;-75
2023/10/14 06:18:57;;;;;;;12.65;2.55;;;14.90;99.90;;;;;;5019302;28;20017;-75
2023/10/14 06:21:27;;;;;;;13.63;2.50;;;14.80;99.90;;;;;;5033537;28;20024;-74
2023/10/14 06:23:55;;;;;;;14.07;2.90;;;14.90;99.90;;;;;;5016720;28;20022;-75
2023/10/14 06:26:22;;;;;;;7.20;2.33;;;14.80;99.90;;;;;;5044289;28;20074;-75
2023/10/14 06:28:49;;;;;;;11.95;2.75;;;14.80;99.90;;;;;;5036686;28;20029;-75
2023/10/14 06:31:18;;;;;;;14.15;2.55;;;14.80;99.90;;;;;;5036543;28;20029;-75
2023/10/14 06:33:45;;;;;;;15.02;2.85;;;14.70;99.90;;;;;;5054197;28;20029;-75
2023/10/14 06:36:14;;;;;;;12.85;3.03;;;14.80;99.90;;;;;;5054364;28;20104;-75
2023/10/14 06:38:44;;;;;;;18.05;3.40;;;14.70;99.90;;;;;;5053291;28;20658;-75
2023/10/14 06:41:16;;;;;;;13.43;2.90;;;14.70;99.90;;;;;;5054486;28;20060;-75
2023/10/14 06:43:55;;;;;;;12.68;3.20;;;14.70;99.90;;;;;;5036415;28;20021;-74
2023/10/14 06:46:21;;;;;;;14.82;2.83;;;14.60;99.90;;;;;;5036512;28;20074;-75
2023/10/14 06:48:52;;;;;;;16.58;2.78;;;14.60;99.90;;;;;;5054115;28;20033;-74
2023/10/14 06:51:19;;;;;;;16.02;3.05;;;14.60;99.90;;;;;;5053701;28;20029;-75
2023/10/14 06:53:45;;;;;;;13.52;2.88;;;14.60;99.90;;;;;;5054483;28;20108;-75
2023/10/14 06:56:11;;;;;;;15.05;2.95;;;14.60;99.90;;;;;;5035551;28;20116;-74
2023/10/14 06:58:39;;;;;;;16.85;3.20;;;14.60;99.90;;;;;;5054300;28;20522;-75
2023/10/14 07:01:07;;;;;;;12.77;2.92;;;14.60;99.90;;;;;;5053346;28;20055;-75
2023/10/14 07:03:33;;;;;;;19.23;3.63;;;14.60;99.90;;;;;;5053002;28;20506;-75
2023/10/14 07:05:59;;;;;;;17.77;3.50;;;14.70;99.90;;;;;;5053181;28;20018;-75
2023/10/14 07:08:29;;;;;;;15.10;3.20;;;14.60;99.90;;;;;;5047134;28;20025;-75
2023/10/14 07:10:56;;;;;;;17.40;3.30;;;14.60;99.90;;;;;;5052640;28;20028;-75
2023/10/14 07:13:23;;;;;;;13.27;2.88;;;14.60;99.90;;;;;;5049828;28;20028;-71
2023/10/14 07:15:50;;;;;;;13.88;3.35;;;14.60;99.90;;;;;;5030560;28;20040;-75
2023/10/14 07:18:23;;;;;;;12.77;3.58;;;14.60;99.90;;;;;;5007917;28;20526;-75
2023/10/14 07:20:56;;;;;;;;;;;14.60;99.90;;;;;;5033958;28;20598;-75
2023/10/14 07:23:22;;;;;;;16.55;3.75;;;14.50;99.90;;;;;;5039167;28;19909;-75
2023/10/14 07:25:47;;;;;;;19.20;3.10;;;14.60;99.90;;;;;;5019506;28;20031;-75
2023/10/14 07:28:13;;;;;;;16.92;3.80;;;14.60;99.90;;;;;;5039225;28;20389;-75
2023/10/14 07:30:48;;;;;;;15.82;3.47;;;14.60;99.90;;;;;;5020907;28;20086;-75
2023/10/14 07:33:15;;;;;;;22.67;4.72;;;14.60;99.90;;;;;;5038394;28;20563;-75
2023/10/14 07:35:41;;;;;;;22.85;4.55;;;14.60;99.90;;;;;;5038925;28;20041;-75
2023/10/14 07:38:08;;;;;;;20.00;4.03;;;14.50;99.90;;;;;;5038367;28;20493;-75
2023/10/14 07:40:34;;;;;;;18.15;3.95;;;14.60;99.90;;;;;;5038288;28;20017;-75
2023/10/14 07:43:07;;;;;;;19.17;3.83;;;14.50;99.90;;;;;;5039202;28;20025;-75
2023/10/14 07:45:35;;;;;;;16.17;3.40;;;14.50;99.90;;;;;;5039645;28;20080;-75
2023/10/14 07:48:12;;;;;;;18.02;2.92;;;14.60;99.90;;;;;;5018878;28;20458;-75
2023/10/14 07:50:44;;;;;;;18.85;3.83;;;14.50;99.90;;;;;;5022896;28;20021;-75
2023/10/14 07:53:13;;;;;;;16.00;3.45;;;14.60;99.90;;;;;;5024248;28;20455;-75
2023/10/14 07:55:40;;;;;;;15.10;3.58;;;14.60;99.90;;;;;;5040456;28;20032;-75
2023/10/14 07:58:08;;;;;;;9.82;2.85;;;14.50;99.90;;;;;;5023865;28;20021;-76
2023/10/14 08:00:48;;;;;;;13.50;3.60;;;14.70;99.90;;;;;;5036028;28;20136;-75
2023/10/14 08:03:25;;;;;;;15.60;2.90;;;14.70;99.90;;;;;;5037391;28;20013;-74
2023/10/14 08:05:59;;;;;;;15.68;3.55;;;14.70;99.90;;;;;;5040259;28;20094;-74
2023/10/14 08:08:30;;;;;;;14.63;3.55;;;14.80;99.90;;;;;;5038134;28;20068;-74
2023/10/14 08:11:00;;;;;;;15.02;3.63;;;14.80;99.90;;;;;;5041957;28;20052;-73
2023/10/14 08:13:27;;;;;;;17.65;3.38;;;14.80;99.90;;;;;;5039461;28;20041;-74
2023/10/14 08:15:54;;;;;;;19.42;4.18;;;14.80;99.90;;;;;;5024157;28;20440;-75
2023/10/14 08:18:25;;;;;;;14.80;3.45;;;14.80;99.90;;;;;;5034101;28;20037;-77
2023/10/14 08:20:55;;;;;;;14.90;3.75;;;14.80;99.90;;;;;;5038039;28;20033;-77
2023/10/14 08:23:25;;;;;;;18.08;4.10;;;14.70;99.90;;;;;;5023559;28;20020;-77
2023/10/14 08:25:54;;;;;;;14.90;3.17;;;14.80;99.90;;;;;;5041502;28;20666;-76
2023/10/14 08:28:22;;;;;;;13.55;3.55;;;14.80;99.90;;;;;;5039497;28;20033;-77
2023/10/14 08:30:50;;;;;;;18.58;3.15;;;14.80;99.90;;;;;;5037964;28;20035;-78
2023/10/14 08:33:21;;;;;;;18.75;3.40;;;14.90;99.90;;;;;;5033634;28;20037;-77
2023/10/14 08:36:00;;;;;;;18.27;3.65;;;14.80;99.90;;;;;;5040083;28;20017;-78
2023/10/14 08:38:28;;;;;;;15.70;3.25;;;15.00;99.90;;;;;;5040701;28;20492;-78
2023/10/14 08:40:56;;;;;;;21.85;3.22;;;15.00;99.90;;;;;;5022287;28;20025;-78
2023/10/14 08:43:26;;;;;;;19.75;3.38;;;15.00;99.90;;;;;;5037523;28;20096;-78
2023/10/14 08:45:54;;;;;;;17.63;3.45;;;15.10;99.90;;;;;;5035468;28;20056;-78
2023/10/14 08:48:24;;;;;;;19.02;3.92;;;15.10;99.90;;;;;;5017540;28;20017;-78
2023/10/14 08:50:53;;;;;;;14.45;3.63;;;15.10;99.90;;;;;;5038446;28;20044;-78
2023/10/14 08:53:22;;;;;;;16.88;2.90;;;15.20;99.90;;;;;;5041181;28;20496;-79
2023/10/14 08:55:49;;;;;;;20.48;3.20;;;15.20;99.90;;;;;;5035606;28;20061;-78
2023/10/14 08:58:15;;;;;;;14.38;3.05;;;15.20;99.90;;;;;;5036034;28;20020;-79
2023/10/14 09:00:43;;;;;;;16.88;3.55;;;15.30;99.90;;;;;;5020031;28;20125;-77
2023/10/14 09:03:10;;;;;;;10.90;2.88;;;15.40;99.90;;;;;;5022216;28;20028;-79
2023/10/14 09:05:41;;;;;;;14.48;3.40;;;15.30;99.90;;;;;;5034242;28;20551;-78
2023/10/14 09:08:18;;;;;;;15.60;3.35;;;15.40;99.90;;;;;;5022415;28;20021;-77
2023/10/14 09:10:44;;;;;;;14.00;3.45;;;15.40;99.90;;;;;;5017511;28;20033;-77
2023/10/14 09:13:12;;;;;;;12.10;3.22;;;15.40;99.90;;;;;;5038652;28;20120;-79
2023/10/14 09:15:41;;;;;;;19.00;3.30;;;15.40;99.90;;;;;;5039334;28;20025;-78
2023/10/14 09:18:16;;;;;;;19.05;3.30;;;15.60;99.90;;;;;;5016071;28;20071;-80
2023/10/14 09:20:42;;;;;;;18.25;3.17;;;15.70;99.90;;;;;;5035549;28;20029;-77
2023/10/14 09:23:17;;;;;;;19.25;3.47;;;15.70;99.90;;;;;;5038232;28;20036;-79
2023/10/14 09:25:45;;;;;;;15.48;2.75;;;15.80;99.90;;;;;;5037897;28;20029;-77
2023/10/14 09:28:12;;;;;;;17.65;3.55;;;16.00;99.90;;;;;;5038748;28;20036;-78
2023/10/14 09:30:44;;;;;;;15.13;2.83;;;16.00;99.90;;;;;;5037030;28;20115;-79
2023/10/14 09:33:15;;;;;;;17.85;3.58;;;16.00;99.90;;;;;;5037936;28;20021;-80
2023/10/14 09:35:50;;;;;;;9.70;3.13;;;16.20;99.90;;;;;;5036907;28;20032;-78
2023/10/14 09:38:22;;;;;;;11.90;2.95;;;16.30;99.90;;;;;;5037950;28;20021;-80
2023/10/14 09:40:59;;;;;;;15.15;3.10;;;16.40;99.90;;;;;;5038082;28;20029;-78
2023/10/14 09:43:25;;;;;;;12.30;3.13;;;16.40;99.90;;;;;;5035305;28;20351;-80
2023/10/14 09:45:56;;;;;;;11.82;2.70;;;16.40;99.90;;;;;;5021449;28;20030;-78
2023/10/14 09:48:29;;;;;;;17.10;3.13;;;16.50;99.90;;;;;;5041535;28;20044;-79
2023/10/14 09:51:02;;;;;;;16.75;2.88;;;16.70;99.90;;;;;;5039424;28;20022;-78
2023/10/14 09:53:33;;;;;;;12.23;2.85;;;16.50;99.90;;;;;;5041073;28;20033;-77
2023/10/14 09:56:04;;;;;;;16.08;3.25;;;16.50;99.90;;;;;;5043723;28;20025;-78
2023/10/14 09:58:34;;;;;;;10.35;2.88;;;16.50;99.90;;;;;;5046514;28;20406;-77
2023/10/14 10:01:01;;;;;;;13.23;2.70;;;16.70;99.90;;;;;;5040387;28;20437;-79
2023/10/14 10:03:34;;;;;;;14.05;2.90;;;16.80;99.90;;;;;;5040916;28;20486;-79
2023/10/14 10:05:59;;;;;;;19.30;3.22;;;16.90;99.90;;;;;;5040203;28;20029;-77
2023/10/14 10:09:09;;;;;;;18.80;3.38;;;16.90;99.90;;;;;;5044168;28;20102;-78
2023/10/14 10:11:36;;;;;;;16.88;2.75;;;17.00;99.90;;;;;;5015347;28;20079;-78
2023/10/14 10:14:16;;;;;;;11.55;2.63;;;17.00;99.90;;;;;;5042342;28;20038;-78
2023/10/14 10:16:42;;;;;;;13.38;3.35;;;16.80;99.90;;;;;;5040904;28;20021;-77
2023/10/14 10:19:09;;;;;;;13.52;2.75;;;16.50;99.90;;;;;;5044998;28;20029;-78
2023/10/14 10:21:43;;;;;;;18.60;3.45;;;16.50;99.90;;;;;;5023442;28;20044;-78
2023/10/14 10:24:19;;;;;;;12.27;2.95;;;16.50;99.90;;;;;;5024242;28;20096;-78
2023/10/14 10:27:03;;;;;;;12.07;3.13;;;16.40;99.90;;;;;;5039795;28;20036;-81
2023/10/14 10:29:35;;;;;;;14.20;2.72;;;16.30;99.90;;;;;;5038693;28;20478;-77
2023/10/14 10:32:07;;;;;;;;;;;16.40;99.90;;;;;;5039528;28;20558;-77
2023/10/14 10:34:33;;;;;;;8.52;2.67;;;16.40;99.90;;;;;;5040944;28;19920;-78
2023/10/14 10:37:04;;;;;;;14.27;3.20;;;16.60;99.90;;;;;;5018888;28;20433;-77
2023/10/14 10:39:31;;;;;;;15.55;2.78;;;16.70;99.90;;;;;;5042079;28;20028;-77
2023/10/14 10:41:57;;;;;;;16.33;2.70;;;16.80;99.90;;;;;;5038294;28;20021;-76
2023/10/14 10:44:29;;;;;;;11.13;2.55;;;17.00;99.90;;;;;;5041105;28;20453;-76
2023/10/14 10:46:56;;;;;;;14.07;2.90;;;17.20;99.90;;;;;;5033271;28;20025;-79
2023/10/14 10:49:51;;;;;;;11.32;2.67;;;17.30;99.90;;;;;;5042621;28;20467;-79
2023/10/14 10:52:16;;;;;;;16.65;3.60;;;17.40;99.90;;;;;;5040216;28;20053;-76
2023/10/14 10:54:44;;;;;;;12.60;2.50;;;17.60;99.90;;;;;;5040980;28;20021;-77
2023/10/14 10:57:13;;;;;;;15.25;3.50;;;17.80;99.90;;;;;;5039864;28;20055;-78
2023/10/14 10:59:40;;;;;;;12.40;3.30;;;17.70;99.90;;;;;;5038297;28;20033;-78
2023/10/14 11:02:13;;;;;;;19.05;3.70;;;17.70;99.90;;;;;;5041234;28;20028;-77
2023/10/14 11:04:41;;;;;;;18.30;3.10;;;17.70;99.90;;;;;;5041921;28;20087;-76
2023/10/14 11:07:11;;;;;;;14.15;3.40;;;17.60;99.90;;;;;;5040195;28;20040;-76
2023/10/14 11:09:39;;;;;;;15.15;3.08;;;17.40;99.90;;;;;;5041126;28;20029;-76
2023/10/14 11:12:12;;;;;;;9.00;2.60;;;17.30;99.90;;;;;;5039332;28;20025;-80
2023/10/14 11:14:38;;;;;;;6.93;2.00;;;17.20;99.90;;;;;;5038983;28;20032;-75
2023/10/14 11:17:05;;;;;;;12.25;2.42;;;16.90;99.90;;;;;;5036200;28;20668;-74
2023/10/14 11:19:32;;;;;;;11.32;2.28;;;16.90;99.90;;;;;;5038009;28;20025;-74
2023/10/14 11:21:59;;;;;;;6.25;1.65;;;16.80;99.90;;;;;;5038729;28;20522;-74
2023/10/14 11:24:26;;;;;;;6.95;1.80;;;17.10;99.90;;;;;;5040822;28;20662;-75
2023/10/14 11:26:53;;;;;;;6.03;1.70;;;17.10;99.90;;;;;;5041725;28;20044;-75
2023/10/14 11:29:24;;;;;;;6.32;1.52;;;17.10;99.90;;;;;;5042001;28;20021;-76
2023/10/14 11:31:56;;;;;;;7.63;2.08;;;17.20;99.90;;;;;;5021768;28;20023;-75
2023/10/14 11:34:22;;;;;;;9.93;2.00;;;17.30;99.90;;;;;;5039220;28;20171;-76
2023/10/14 11:36:48;;;;;;;10.38;1.98;;;17.50;99.90;;;;;;5041445;28;20103;-75
2023/10/14 11:39:19;;;;;;;12.55;1.95;;;17.60;99.90;;;;;;5040392;28;20059;-74
2023/10/14 11:41:46;;;;;;;13.40;2.17;;;17.60;99.90;;;;;;5039550;28;20041;-74
2023/10/14 11:44:17;;;;;;;11.63;2.13;;;17.40;99.90;;;;;;5034320;28;20083;-73
2023/10/14 11:46:43;;;;;;;11.65;2.22;;;17.50;99.90;;;;;;5037738;28;20069;-75
2023/10/14 11:49:13;;;;;;;9.55;2.05;;;17.60;99.90;;;;;;5043274;28;20147;-74
2023/10/14 11:51:44;;;;;;;7.47;2.28;;;17.60;99.90;;;;;;5039682;28;20020;-74
2023/10/14 11:54:13;;;;;;;10.93;2.53;;;17.60;99.90;;;;;;5043136;28;20112;-74
2023/10/14 11:56:40;;;;;;;12.45;2.63;;;17.50;99.90;;;;;;5040349;28;20025;-74
2023/10/14 11:59:06;;;;;;;9.88;2.40;;;17.50;99.90;;;;;;5037559;28;20356;-73
2023/10/14 12:01:35;;;;;;;14.90;2.28;;;17.60;99.90;;;;;;5038386;28;20600;-74
2023/10/14 12:04:04;;;;;;;7.40;1.90;;;17.50;99.90;;;;;;5042430;28;20108;-74
2023/10/14 12:06:34;;;;;;;11.80;2.42;;;17.40;99.90;;;;;;5038637;28;20022;-74
2023/10/14 12:09:05;;;;;;;8.57;2.08;;;17.20;99.90;;;;;;5019554;28;20017;-74
2023/10/14 12:11:44;;;;;;;11.18;1.98;;;17.20;99.90;;;;;;5038952;28;20051;-73
2023/10/14 12:14:11;;;;;;;10.70;2.20;;;17.20;99.90;;;;;;5038216;28;20073;-76
2023/10/14 12:16:40;;;;;;;7.78;1.70;;;17.30;99.90;;;;;;5034243;28;20025;-73
2023/10/14 12:19:06;;;;;;;11.93;2.30;;;17.30;99.90;;;;;;5040783;28;20415;-74
2023/10/14 12:21:33;;;;;;;13.70;2.17;;;17.40;99.90;;;;;;5037844;28;20434;-74
2023/10/14 12:24:02;;;;;;;9.68;2.67;;;17.40;99.90;;;;;;5036662;28;20091;-76
2023/10/14 12:26:30;;;;;;;17.23;2.00;;;17.20;99.90;;;;;;5017267;28;20025;-76
2023/10/14 12:28:56;;;;;;;10.70;2.40;;;17.40;99.90;;;;;;5034746;28;20038;-77
2023/10/14 12:31:24;;;;;;;6.03;1.75;;;17.50;99.90;;;;;;5036516;28;20107;-78
2023/10/14 12:33:50;;;;;;;12.48;2.45;;;17.50;99.90;;;;;;5038997;28;20033;-75
2023/10/14 12:36:17;;;;;;;8.27;2.20;;;17.50;99.90;;;;;;5036290;28;20112;-75
2023/10/14 12:38:43;;;;;;;13.02;2.22;;;17.50;99.90;;;;;;5038752;28;20055;-75
2023/10/14 12:41:13;;;;;;;9.85;2.35;;;17.40;99.90;;;;;;5037821;28;20025;-74
2023/10/14 12:43:41;;;;;;;8.07;2.33;;;17.30;99.90;;;;;;5036173;28;20017;-74
2023/10/14 12:48:45;;;;;;;11.70;2.50;;;17.30;99.90;;;;;;5038603;28;20036;-75
2023/10/14 12:51:14;;;;;;;11.85;2.40;;;17.20;99.90;;;;;;5036727;28;20013;-75
2023/10/14 12:53:45;;;;;;;10.52;2.50;;;17.20;99.90;;;;;;5037119;28;20487;-74
2023/10/14 12:56:14;;;;;;;8.95;2.60;;;17.00;99.90;;;;;;5036640;28;20442;-75
2023/10/14 12:58:45;;;;;;;12.32;2.03;;;17.00;99.90;;;;;;5033938;28;20034;-76
2023/10/14 13:01:19;;;;;;;8.27;1.88;;;16.80;99.90;;;;;;5036001;28;20023;-75
2023/10/14 13:03:51;;;;;;;9.52;2.15;;;16.80;99.90;;;;;;5037574;28;20381;-74
2023/10/14 13:06:24;;;;;;;17.88;2.70;;;16.80;99.90;;;;;;5035594;28;20718;-74
2023/10/14 13:08:50;;;;;;;8.20;2.30;;;16.70;99.90;;;;;;5035710;28;20087;-74
2023/10/14 13:11:17;;;;;;;9.95;1.92;;;16.80;99.90;;;;;;5037401;28;20499;-75
2023/10/14 13:13:52;;;;;;;13.40;2.97;;;16.80;99.90;;;;;;5019665;28;20025;-75
2023/10/14 13:16:19;;;;;;;9.18;1.98;;;16.80;99.90;;;;;;5017014;28;20037;-75
2023/10/14 13:18:47;;;;;;;8.52;1.83;;;16.90;99.90;;;;;;5037905;28;20013;-75
2023/10/14 13:21:14;;;;;;;11.18;1.88;;;16.80;99.90;;;;;;5040604;28;20040;-75
2023/10/14 13:23:41;;;;;;;8.90;2.17;;;16.80;99.90;;;;;;5022108;28;20433;-74
2023/10/14 13:26:09;;;;;;;11.60;2.33;;;16.60;99.90;;;;;;5036723;28;20029;-74
2023/10/14 13:28:36;;;;;;;9.05;2.20;;;16.50;99.90;;;;;;5036700;28;20059;-74
2023/10/14 13:31:04;;;;;;;9.93;2.53;;;16.50;99.90;;;;;;5041571;28;20045;-75
2023/10/14 13:33:30;;;;;;;14.98;2.63;;;16.50;99.90;;;;;;5039455;28;20045;-74
2023/10/14 13:35:56;;;;;;;10.93;2.63;;;16.40;99.90;;;;;;5038113;28;20141;-75
2023/10/14 13:38:25;;;;;;;10.07;2.25;;;16.40;99.90;;;;;;5045102;28;20029;-75
2023/10/14 13:40:50;;;;;;;11.10;2.42;;;16.50;99.90;;;;;;5040128;28;20029;-74
2023/10/14 13:43:17;;;;;;;11.65;2.53;;;16.60;99.90;;;;;;5024391;28;20462;-74